sensor_id;sensor_type;location;lat;lon;timestamp;P1;durP1;ratioP1;P2;durP2;ratioP2
12869;SDS011;6503;48.572;13.460;2023-09-30T00:00:15;7.95;;;6.13;;
12869;SDS011;6503;48.572;13.460;2023-09-30T00:02:50;8.40;;;6.25;;
12869;SDS011;6503;48.572;13.460;2023-09-30T00:05:19;9.85;;;6.75;;
12869;SDS011;6503;48.572;13.460;2023-09-30T00:07:48;9.95;;;6.93;;
12869;SDS011;6503;48.572;13.460;2023-09-30T00:10:16;9.93;;;6.88;;
12869;SDS011;6503;48.572;13.460;2023-09-30T00:12:47;9.50;;;6.72;;
12869;SDS011;6503;48.572;13.460;2023-09-30T00:15:15;12.25;;;6.75;;
12869;SDS011;6503;48.572;13.460;2023-09-30T00:17:42;11.10;;;6.85;;
12869;SDS011;6503;48.572;13.460;2023-09-30T00:20:10;8.25;;;6.40;;
12869;SDS011;6503;48.572;13.460;2023-09-30T00:22:39;7.93;;;6.28;;
12869;SDS011;6503;48.572;13.460;2023-09-30T00:25:11;9.93;;;6.55;;
12869;SDS011;6503;48.572;13.460;2023-09-30T00:27:39;11.82;;;6.65;;
12869;SDS011;6503;48.572;13.460;2023-09-30T00:30:06;10.15;;;7.10;;
12869;SDS011;6503;48.572;13.460;2023-09-30T00:32:34;8.23;;;6.60;;
12869;SDS011;6503;48.572;13.460;2023-09-30T00:35:02;11.60;;;6.75;;
12869;SDS011;6503;48.572;13.460;2023-09-30T00:37:39;8.93;;;6.45;;
12869;SDS011;6503;48.572;13.460;2023-09-30T00:40:14;7.82;;;6.43;;
12869;SDS011;6503;48.572;13.460;2023-09-30T00:42:48;11.43;;;6.30;;
12869;SDS011;6503;48.572;13.460;2023-09-30T00:45:16;9.93;;;6.65;;
12869;SDS011;6503;48.572;13.460;2023-09-30T00:47:45;10.43;;;6.50;;
12869;SDS011;6503;48.572;13.460;2023-09-30T00:50:13;9.43;;;6.90;;
12869;SDS011;6503;48.572;13.460;2023-09-30T00:52:41;10.23;;;6.80;;
12869;SDS011;6503;48.572;13.460;2023-09-30T00:55:11;11.38;;;6.88;;
12869;SDS011;6503;48.572;13.460;2023-09-30T00:57:41;12.32;;;6.93;;
12869;SDS011;6503;48.572;13.460;2023-09-30T01:00:12;11.02;;;6.53;;
12869;SDS011;6503;48.572;13.460;2023-09-30T01:02:40;14.45;;;7.78;;
12869;SDS011;6503;48.572;13.460;2023-09-30T01:05:09;8.90;;;6.93;;
12869;SDS011;6503;48.572;13.460;2023-09-30T01:07:36;14.98;;;7.75;;
12869;SDS011;6503;48.572;13.460;2023-09-30T01:10:04;8.40;;;6.45;;
12869;SDS011;6503;48.572;13.460;2023-09-30T01:12:34;10.75;;;7.53;;
12869;SDS011;6503;48.572;13.460;2023-09-30T01:15:06;11.50;;;7.30;;
12869;SDS011;6503;48.572;13.460;2023-09-30T01:17:35;10.75;;;6.97;;
12869;SDS011;6503;48.572;13.460;2023-09-30T01:20:03;8.98;;;6.63;;
12869;SDS011;6503;48.572;13.460;2023-09-30T01:22:33;9.85;;;7.40;;
12869;SDS011;6503;48.572;13.460;2023-09-30T01:25:00;8.80;;;7.00;;
12869;SDS011;6503;48.572;13.460;2023-09-30T01:27:28;13.32;;;7.40;;
12869;SDS011;6503;48.572;13.460;2023-09-30T01:29:57;12.43;;;7.72;;
12869;SDS011;6503;48.572;13.460;2023-09-30T01:32:24;13.15;;;7.75;;
12869;SDS011;6503;48.572;13.460;2023-09-30T01:34:51;8.93;;;7.35;;
12869;SDS011;6503;48.572;13.460;2023-09-30T01:37:19;11.48;;;7.30;;
12869;SDS011;6503;48.572;13.460;2023-09-30T01:39:48;12.93;;;7.95;;
12869;SDS011;6503;48.572;13.460;2023-09-30T01:42:15;12.25;;;8.07;;
12869;SDS011;6503;48.572;13.460;2023-09-30T01:44:43;14.55;;;8.70;;
12869;SDS011;6503;48.572;13.460;2023-09-30T01:47:10;16.52;;;9.52;;
12869;SDS011;6503;48.572;13.460;2023-09-30T01:49:37;15.75;;;8.73;;
12869;SDS011;6503;48.572;13.460;2023-09-30T01:52:05;14.95;;;8.68;;
12869;SDS011;6503;48.572;13.460;2023-09-30T01:54:32;15.27;;;8.77;;
12869;SDS011;6503;48.572;13.460;2023-09-30T01:57:04;21.92;;;9.73;;
12869;SDS011;6503;48.572;13.460;2023-09-30T01:59:32;21.23;;;10.32;;
12869;SDS011;6503;48.572;13.460;2023-09-30T02:01:59;23.20;;;10.35;;
12869;SDS011;6503;48.572;13.460;2023-09-30T02:04:27;25.00;;;10.75;;
12869;SDS011;6503;48.572;13.460;2023-09-30T02:06:56;25.52;;;11.15;;
12869;SDS011;6503;48.572;13.460;2023-09-30T02:09:23;24.63;;;10.63;;
12869;SDS011;6503;48.572;13.460;2023-09-30T02:11:50;25.25;;;10.65;;
12869;SDS011;6503;48.572;13.460;2023-09-30T02:14:24;24.05;;;10.77;;
12869;SDS011;6503;48.572;13.460;2023-09-30T02:16:51;24.38;;;10.50;;
12869;SDS011;6503;48.572;13.460;2023-09-30T02:19:19;22.55;;;10.20;;
12869;SDS011;6503;48.572;13.460;2023-09-30T02:21:46;28.85;;;11.05;;
12869;SDS011;6503;48.572;13.460;2023-09-30T02:24:14;22.80;;;10.55;;
12869;SDS011;6503;48.572;13.460;2023-09-30T02:26:41;27.77;;;11.88;;
12869;SDS011;6503;48.572;13.460;2023-09-30T02:29:09;24.85;;;10.70;;
12869;SDS011;6503;48.572;13.460;2023-09-30T02:31:38;29.85;;;10.40;;
12869;SDS011;6503;48.572;13.460;2023-09-30T02:36:33;25.70;;;10.63;;
12869;SDS011;6503;48.572;13.460;2023-09-30T02:39:04;28.08;;;11.45;;
12869;SDS011;6503;48.572;13.460;2023-09-30T02:41:33;27.27;;;11.25;;
12869;SDS011;6503;48.572;13.460;2023-09-30T02:44:02;25.20;;;10.68;;
12869;SDS011;6503;48.572;13.460;2023-09-30T02:46:30;25.98;;;11.00;;
12869;SDS011;6503;48.572;13.460;2023-09-30T02:49:00;25.50;;;10.90;;
12869;SDS011;6503;48.572;13.460;2023-09-30T02:51:28;28.67;;;11.85;;
12869;SDS011;6503;48.572;13.460;2023-09-30T02:53:56;22.98;;;11.10;;
12869;SDS011;6503;48.572;13.460;2023-09-30T02:56:23;25.83;;;11.60;;
12869;SDS011;6503;48.572;13.460;2023-09-30T02:58:56;27.63;;;11.02;;
12869;SDS011;6503;48.572;13.460;2023-09-30T03:01:29;27.80;;;11.13;;
12869;SDS011;6503;48.572;13.460;2023-09-30T03:03:59;27.17;;;10.40;;
12869;SDS011;6503;48.572;13.460;2023-09-30T03:06:32;24.58;;;10.52;;
12869;SDS011;6503;48.572;13.460;2023-09-30T03:09:07;27.38;;;10.75;;
12869;SDS011;6503;48.572;13.460;2023-09-30T03:14:04;24.65;;;10.70;;
12869;SDS011;6503;48.572;13.460;2023-09-30T03:16:33;25.02;;;10.30;;
12869;SDS011;6503;48.572;13.460;2023-09-30T03:19:05;27.77;;;10.63;;
12869;SDS011;6503;48.572;13.460;2023-09-30T03:21:41;25.63;;;9.95;;
12869;SDS011;6503;48.572;13.460;2023-09-30T03:24:09;25.60;;;9.88;;
12869;SDS011;6503;48.572;13.460;2023-09-30T03:26:37;22.65;;;9.82;;
12869;SDS011;6503;48.572;13.460;2023-09-30T03:29:07;23.17;;;10.15;;
12869;SDS011;6503;48.572;13.460;2023-09-30T03:31:35;23.48;;;9.95;;
12869;SDS011;6503;48.572;13.460;2023-09-30T03:34:03;23.23;;;10.40;;
12869;SDS011;6503;48.572;13.460;2023-09-30T03:36:37;24.33;;;10.85;;
12869;SDS011;6503;48.572;13.460;2023-09-30T03:39:06;18.40;;;9.82;;
12869;SDS011;6503;48.572;13.460;2023-09-30T03:41:48;25.20;;;10.02;;
12869;SDS011;6503;48.572;13.460;2023-09-30T03:44:19;25.58;;;10.05;;
12869;SDS011;6503;48.572;13.460;2023-09-30T03:46:48;24.20;;;10.27;;
12869;SDS011;6503;48.572;13.460;2023-09-30T03:49:27;21.42;;;9.52;;
12869;SDS011;6503;48.572;13.460;2023-09-30T03:51:56;23.02;;;10.00;;
12869;SDS011;6503;48.572;13.460;2023-09-30T03:54:24;20.63;;;10.20;;
12869;SDS011;6503;48.572;13.460;2023-09-30T03:56:52;21.65;;;9.70;;
12869;SDS011;6503;48.572;13.460;2023-09-30T03:59:19;19.30;;;8.93;;
12869;SDS011;6503;48.572;13.460;2023-09-30T04:01:46;20.88;;;9.52;;
12869;SDS011;6503;48.572;13.460;2023-09-30T04:04:14;21.92;;;10.68;;
12869;SDS011;6503;48.572;13.460;2023-09-30T04:06:41;23.15;;;9.60;;
12869;SDS011;6503;48.572;13.460;2023-09-30T04:09:10;23.42;;;9.68;;
12869;SDS011;6503;48.572;13.460;2023-09-30T04:11:38;21.73;;;10.17;;
12869;SDS011;6503;48.572;13.460;2023-09-30T04:14:08;22.48;;;10.27;;
12869;SDS011;6503;48.572;13.460;2023-09-30T04:16:35;25.00;;;10.00;;
12869;SDS011;6503;48.572;13.460;2023-09-30T04:19:03;21.30;;;8.90;;
12869;SDS011;6503;48.572;13.460;2023-09-30T04:21:32;21.43;;;10.17;;
12869;SDS011;6503;48.572;13.460;2023-09-30T04:24:00;24.83;;;10.02;;
12869;SDS011;6503;48.572;13.460;2023-09-30T04:26:30;21.48;;;10.13;;
12869;SDS011;6503;48.572;13.460;2023-09-30T04:29:00;24.95;;;9.32;;
12869;SDS011;6503;48.572;13.460;2023-09-30T04:31:35;20.48;;;9.77;;
12869;SDS011;6503;48.572;13.460;2023-09-30T04:34:04;21.40;;;9.98;;
12869;SDS011;6503;48.572;13.460;2023-09-30T04:36:34;20.80;;;9.50;;
12869;SDS011;6503;48.572;13.460;2023-09-30T04:39:03;25.58;;;10.32;;
12869;SDS011;6503;48.572;13.460;2023-09-30T04:41:32;21.05;;;9.45;;
12869;SDS011;6503;48.572;13.460;2023-09-30T04:43:59;22.60;;;10.05;;
12869;SDS011;6503;48.572;13.460;2023-09-30T04:46:27;20.52;;;10.13;;
12869;SDS011;6503;48.572;13.460;2023-09-30T04:48:55;26.05;;;10.63;;
12869;SDS011;6503;48.572;13.460;2023-09-30T04:51:22;22.52;;;9.77;;
12869;SDS011;6503;48.572;13.460;2023-09-30T04:53:51;21.52;;;10.35;;
12869;SDS011;6503;48.572;13.460;2023-09-30T04:56:20;24.50;;;11.17;;
12869;SDS011;6503;48.572;13.460;2023-09-30T04:58:49;25.95;;;11.10;;
12869;SDS011;6503;48.572;13.460;2023-09-30T05:01:19;24.63;;;11.02;;
12869;SDS011;6503;48.572;13.460;2023-09-30T05:03:50;22.33;;;11.45;;
12869;SDS011;6503;48.572;13.460;2023-09-30T05:06:18;22.83;;;10.65;;
12869;SDS011;6503;48.572;13.460;2023-09-30T05:08:46;27.13;;;11.80;;
12869;SDS011;6503;48.572;13.460;2023-09-30T05:11:19;23.73;;;10.60;;
12869;SDS011;6503;48.572;13.460;2023-09-30T05:13:47;22.58;;;11.05;;
12869;SDS011;6503;48.572;13.460;2023-09-30T05:16:24;24.67;;;10.88;;
12869;SDS011;6503;48.572;13.460;2023-09-30T05:18:55;23.63;;;10.77;;
12869;SDS011;6503;48.572;13.460;2023-09-30T05:21:25;20.40;;;9.43;;
12869;SDS011;6503;48.572;13.460;2023-09-30T05:23:55;21.55;;;10.65;;
12869;SDS011;6503;48.572;13.460;2023-09-30T05:28:54;21.65;;;9.65;;
12869;SDS011;6503;48.572;13.460;2023-09-30T05:31:24;25.88;;;11.25;;
12869;SDS011;6503;48.572;13.460;2023-09-30T05:33:51;21.58;;;9.95;;
12869;SDS011;6503;48.572;13.460;2023-09-30T05:36:19;21.50;;;9.45;;
12869;SDS011;6503;48.572;13.460;2023-09-30T05:38:46;22.65;;;9.77;;
12869;SDS011;6503;48.572;13.460;2023-09-30T05:41:14;19.73;;;9.43;;
12869;SDS011;6503;48.572;13.460;2023-09-30T05:43:45;22.67;;;10.20;;
12869;SDS011;6503;48.572;13.460;2023-09-30T05:46:16;24.43;;;9.77;;
12869;SDS011;6503;48.572;13.460;2023-09-30T05:48:45;23.20;;;9.47;;
12869;SDS011;6503;48.572;13.460;2023-09-30T05:51:13;22.53;;;9.50;;
12869;SDS011;6503;48.572;13.460;2023-09-30T05:53:40;19.92;;;9.77;;
12869;SDS011;6503;48.572;13.460;2023-09-30T05:56:08;21.90;;;9.55;;
12869;SDS011;6503;48.572;13.460;2023-09-30T05:58:36;22.40;;;9.90;;
12869;SDS011;6503;48.572;13.460;2023-09-30T06:01:07;21.00;;;9.20;;
12869;SDS011;6503;48.572;13.460;2023-09-30T06:03:37;22.90;;;9.43;;
12869;SDS011;6503;48.572;13.460;2023-09-30T06:06:11;23.02;;;9.73;;
12869;SDS011;6503;48.572;13.460;2023-09-30T06:08:40;23.67;;;10.50;;
12869;SDS011;6503;48.572;13.460;2023-09-30T06:11:15;25.60;;;11.18;;
12869;SDS011;6503;48.572;13.460;2023-09-30T06:13:44;24.33;;;10.68;;
12869;SDS011;6503;48.572;13.460;2023-09-30T06:16:12;23.77;;;10.95;;
12869;SDS011;6503;48.572;13.460;2023-09-30T06:18:41;23.42;;;10.38;;
12869;SDS011;6503;48.572;13.460;2023-09-30T06:23:59;21.38;;;10.65;;
12869;SDS011;6503;48.572;13.460;2023-09-30T06:26:26;24.85;;;11.00;;
12869;SDS011;6503;48.572;13.460;2023-09-30T06:28:57;21.77;;;11.20;;
12869;SDS011;6503;48.572;13.460;2023-09-30T06:31:26;22.25;;;10.80;;
12869;SDS011;6503;48.572;13.460;2023-09-30T06:34:07;20.88;;;10.73;;
12869;SDS011;6503;48.572;13.460;2023-09-30T06:36:55;23.17;;;10.00;;
12869;SDS011;6503;48.572;13.460;2023-09-30T06:39:37;23.23;;;10.73;;
12869;SDS011;6503;48.572;13.460;2023-09-30T06:42:04;23.52;;;9.90;;
12869;SDS011;6503;48.572;13.460;2023-09-30T06:44:35;21.85;;;11.38;;
12869;SDS011;6503;48.572;13.460;2023-09-30T06:47:03;21.48;;;10.38;;
12869;SDS011;6503;48.572;13.460;2023-09-30T06:49:45;20.80;;;11.25;;
12869;SDS011;6503;48.572;13.460;2023-09-30T06:52:15;22.27;;;10.63;;
12869;SDS011;6503;48.572;13.460;2023-09-30T06:54:59;26.30;;;11.38;;
12869;SDS011;6503;48.572;13.460;2023-09-30T06:57:27;24.25;;;11.32;;
12869;SDS011;6503;48.572;13.460;2023-09-30T06:59:54;21.55;;;10.13;;
12869;SDS011;6503;48.572;13.460;2023-09-30T07:02:22;22.55;;;10.82;;
12869;SDS011;6503;48.572;13.460;2023-09-30T07:04:49;21.40;;;10.68;;
12869;SDS011;6503;48.572;13.460;2023-09-30T07:07:17;22.98;;;10.60;;
12869;SDS011;6503;48.572;13.460;2023-09-30T07:09:44;23.20;;;10.23;;
12869;SDS011;6503;48.572;13.460;2023-09-30T07:12:13;24.88;;;10.75;;
12869;SDS011;6503;48.572;13.460;2023-09-30T07:14:41;24.05;;;10.27;;
12869;SDS011;6503;48.572;13.460;2023-09-30T07:17:09;21.10;;;10.13;;
12869;SDS011;6503;48.572;13.460;2023-09-30T07:19:37;21.80;;;10.57;;
12869;SDS011;6503;48.572;13.460;2023-09-30T07:22:04;22.67;;;10.95;;
12869;SDS011;6503;48.572;13.460;2023-09-30T07:24:33;25.05;;;10.73;;
12869;SDS011;6503;48.572;13.460;2023-09-30T07:27:00;20.08;;;9.98;;
12869;SDS011;6503;48.572;13.460;2023-09-30T07:29:30;21.55;;;10.23;;
12869;SDS011;6503;48.572;13.460;2023-09-30T07:31:58;20.77;;;9.70;;
12869;SDS011;6503;48.572;13.460;2023-09-30T07:34:25;21.92;;;9.38;;
12869;SDS011;6503;48.572;13.460;2023-09-30T07:36:53;18.10;;;8.40;;
12869;SDS011;6503;48.572;13.460;2023-09-30T07:39:20;18.45;;;8.18;;
12869;SDS011;6503;48.572;13.460;2023-09-30T07:41:49;15.77;;;6.95;;
12869;SDS011;6503;48.572;13.460;2023-09-30T07:44:18;13.65;;;6.32;;
12869;SDS011;6503;48.572;13.460;2023-09-30T07:46:47;16.58;;;6.00;;
12869;SDS011;6503;48.572;13.460;2023-09-30T07:49:14;12.18;;;6.28;;
12869;SDS011;6503;48.572;13.460;2023-09-30T07:51:42;16.13;;;6.63;;
12869;SDS011;6503;48.572;13.460;2023-09-30T07:54:11;15.68;;;6.10;;
12869;SDS011;6503;48.572;13.460;2023-09-30T07:56:42;15.00;;;6.70;;
12869;SDS011;6503;48.572;13.460;2023-09-30T07:59:10;13.82;;;5.95;;
12869;SDS011;6503;48.572;13.460;2023-09-30T08:01:41;12.07;;;5.45;;
12869;SDS011;6503;48.572;13.460;2023-09-30T08:04:11;13.48;;;6.60;;
12869;SDS011;6503;48.572;13.460;2023-09-30T08:06:38;15.15;;;5.82;;
12869;SDS011;6503;48.572;13.460;2023-09-30T08:09:06;15.25;;;6.10;;
12869;SDS011;6503;48.572;13.460;2023-09-30T08:11:38;12.85;;;6.18;;
12869;SDS011;6503;48.572;13.460;2023-09-30T08:14:06;13.82;;;6.00;;
12869;SDS011;6503;48.572;13.460;2023-09-30T08:16:36;12.88;;;6.00;;
12869;SDS011;6503;48.572;13.460;2023-09-30T08:19:04;14.80;;;6.40;;
12869;SDS011;6503;48.572;13.460;2023-09-30T08:21:36;21.00;;;7.57;;
12869;SDS011;6503;48.572;13.460;2023-09-30T08:24:03;14.25;;;6.00;;
12869;SDS011;6503;48.572;13.460;2023-09-30T08:26:30;11.50;;;5.60;;
12869;SDS011;6503;48.572;13.460;2023-09-30T08:28:58;14.43;;;5.50;;
12869;SDS011;6503;48.572;13.460;2023-09-30T08:31:28;13.32;;;6.00;;
12869;SDS011;6503;48.572;13.460;2023-09-30T08:33:55;14.68;;;5.78;;
12869;SDS011;6503;48.572;13.460;2023-09-30T08:36:23;13.20;;;5.88;;
12869;SDS011;6503;48.572;13.460;2023-09-30T08:38:52;13.68;;;6.68;;
12869;SDS011;6503;48.572;13.460;2023-09-30T08:41:24;13.25;;;6.00;;
12869;SDS011;6503;48.572;13.460;2023-09-30T08:43:54;13.50;;;6.03;;
12869;SDS011;6503;48.572;13.460;2023-09-30T08:46:23;13.30;;;6.40;;
12869;SDS011;6503;48.572;13.460;2023-09-30T08:48:51;14.48;;;6.40;;
12869;SDS011;6503;48.572;13.460;2023-09-30T08:51:22;17.67;;;6.88;;
12869;SDS011;6503;48.572;13.460;2023-09-30T08:53:52;11.40;;;5.40;;
12869;SDS011;6503;48.572;13.460;2023-09-30T08:56:21;14.68;;;5.95;;
12869;SDS011;6503;48.572;13.460;2023-09-30T08:58:50;13.70;;;5.80;;
12869;SDS011;6503;48.572;13.460;2023-09-30T09:01:17;12.27;;;6.15;;
12869;SDS011;6503;48.572;13.460;2023-09-30T09:03:47;13.93;;;6.20;;
12869;SDS011;6503;48.572;13.460;2023-09-30T09:06:17;14.10;;;5.93;;
12869;SDS011;6503;48.572;13.460;2023-09-30T09:09:00;12.43;;;5.90;;
12869;SDS011;6503;48.572;13.460;2023-09-30T09:11:52;13.55;;;6.43;;
12869;SDS011;6503;48.572;13.460;2023-09-30T09:14:26;13.32;;;5.80;;
12869;SDS011;6503;48.572;13.460;2023-09-30T09:20:09;11.60;;;6.50;;
12869;SDS011;6503;48.572;13.460;2023-09-30T09:22:52;15.63;;;6.68;;
12869;SDS011;6503;48.572;13.460;2023-09-30T09:25:26;13.32;;;6.25;;
12869;SDS011;6503;48.572;13.460;2023-09-30T09:28:03;12.60;;;5.97;;
12869;SDS011;6503;48.572;13.460;2023-09-30T09:30:37;15.02;;;6.85;;
12869;SDS011;6503;48.572;13.460;2023-09-30T09:33:08;12.60;;;6.25;;
12869;SDS011;6503;48.572;13.460;2023-09-30T09:35:46;14.45;;;6.53;;
12869;SDS011;6503;48.572;13.460;2023-09-30T09:38:15;16.23;;;7.13;;
12869;SDS011;6503;48.572;13.460;2023-09-30T09:40:49;14.20;;;6.22;;
12869;SDS011;6503;48.572;13.460;2023-09-30T09:43:16;12.05;;;6.43;;
12869;SDS011;6503;48.572;13.460;2023-09-30T09:45:47;13.95;;;6.90;;
12869;SDS011;6503;48.572;13.460;2023-09-30T09:48:17;14.75;;;7.03;;
12869;SDS011;6503;48.572;13.460;2023-09-30T09:50:50;14.90;;;6.70;;
12869;SDS011;6503;48.572;13.460;2023-09-30T09:55:47;15.02;;;6.30;;
12869;SDS011;6503;48.572;13.460;2023-09-30T09:58:18;14.18;;;6.07;;
12869;SDS011;6503;48.572;13.460;2023-09-30T10:00:50;12.35;;;5.97;;
12869;SDS011;6503;48.572;13.460;2023-09-30T10:03:29;12.10;;;6.15;;
12869;SDS011;6503;48.572;13.460;2023-09-30T10:05:59;13.38;;;6.35;;
12869;SDS011;6503;48.572;13.460;2023-09-30T10:08:28;12.63;;;5.95;;
12869;SDS011;6503;48.572;13.460;2023-09-30T10:11:00;12.32;;;5.13;;
12869;SDS011;6503;48.572;13.460;2023-09-30T10:19:08;11.55;;;5.55;;
12869;SDS011;6503;48.572;13.460;2023-09-30T10:21:39;12.23;;;5.63;;
12869;SDS011;6503;48.572;13.460;2023-09-30T10:29:41;12.13;;;5.13;;
12869;SDS011;6503;48.572;13.460;2023-09-30T10:32:11;12.23;;;5.60;;
12869;SDS011;6503;48.572;13.460;2023-09-30T10:34:38;13.27;;;5.85;;
12869;SDS011;6503;48.572;13.460;2023-09-30T10:37:19;11.50;;;5.57;;
12869;SDS011;6503;48.572;13.460;2023-09-30T10:39:55;11.55;;;5.47;;
12869;SDS011;6503;48.572;13.460;2023-09-30T10:51:09;11.68;;;5.15;;
12869;SDS011;6503;48.572;13.460;2023-09-30T10:53:46;11.30;;;5.07;;
12869;SDS011;6503;48.572;13.460;2023-09-30T10:56:14;11.38;;;5.63;;
12869;SDS011;6503;48.572;13.460;2023-09-30T10:58:42;9.80;;;4.70;;
12869;SDS011;6503;48.572;13.460;2023-09-30T11:01:10;10.57;;;5.13;;
12869;SDS011;6503;48.572;13.460;2023-09-30T11:03:39;10.55;;;4.80;;
12869;SDS011;6503;48.572;13.460;2023-09-30T11:06:11;11.55;;;6.30;;
12869;SDS011;6503;48.572;13.460;2023-09-30T11:08:54;9.25;;;4.40;;
12869;SDS011;6503;48.572;13.460;2023-09-30T11:11:33;10.57;;;5.55;;
12869;SDS011;6503;48.572;13.460;2023-09-30T11:14:02;12.13;;;5.95;;
12869;SDS011;6503;48.572;13.460;2023-09-30T11:16:42;8.85;;;4.95;;
12869;SDS011;6503;48.572;13.460;2023-09-30T11:19:14;11.38;;;4.90;;
12869;SDS011;6503;48.572;13.460;2023-09-30T11:33:08;9.75;;;4.80;;
12869;SDS011;6503;48.572;13.460;2023-09-30T11:35:38;11.95;;;5.45;;
12869;SDS011;6503;48.572;13.460;2023-09-30T11:38:29;11.43;;;5.30;;
12869;SDS011;6503;48.572;13.460;2023-09-30T11:41:00;10.18;;;4.72;;
12869;SDS011;6503;48.572;13.460;2023-09-30T11:43:57;9.40;;;4.60;;
12869;SDS011;6503;48.572;13.460;2023-09-30T11:46:30;8.77;;;4.15;;
12869;SDS011;6503;48.572;13.460;2023-09-30T11:52:01;9.18;;;4.55;;
12869;SDS011;6503;48.572;13.460;2023-09-30T11:54:46;10.43;;;5.22;;
12869;SDS011;6503;48.572;13.460;2023-09-30T11:57:16;8.50;;;4.40;;
12869;SDS011;6503;48.572;13.460;2023-09-30T11:59:57;9.40;;;4.53;;
12869;SDS011;6503;48.572;13.460;2023-09-30T12:02:24;8.05;;;4.78;;
12869;SDS011;6503;48.572;13.460;2023-09-30T12:05:15;10.00;;;5.32;;
12869;SDS011;6503;48.572;13.460;2023-09-30T12:07:57;8.48;;;4.65;;
12869;SDS011;6503;48.572;13.460;2023-09-30T12:10:27;8.35;;;4.30;;
12869;SDS011;6503;48.572;13.460;2023-09-30T12:13:01;10.07;;;4.63;;
12869;SDS011;6503;48.572;13.460;2023-09-30T12:15:31;5.97;;;3.30;;
12869;SDS011;6503;48.572;13.460;2023-09-30T12:18:02;7.60;;;3.88;;
12869;SDS011;6503;48.572;13.460;2023-09-30T12:20:29;8.15;;;3.45;;
12869;SDS011;6503;48.572;13.460;2023-09-30T12:23:06;7.30;;;4.30;;
12869;SDS011;6503;48.572;13.460;2023-09-30T12:25:38;9.35;;;4.40;;
12869;SDS011;6503;48.572;13.460;2023-09-30T12:28:11;7.28;;;3.80;;
12869;SDS011;6503;48.572;13.460;2023-09-30T12:30:44;7.43;;;3.90;;
12869;SDS011;6503;48.572;13.460;2023-09-30T12:33:21;7.30;;;4.20;;
12869;SDS011;6503;48.572;13.460;2023-09-30T12:35:49;9.15;;;4.55;;
12869;SDS011;6503;48.572;13.460;2023-09-30T12:38:43;9.88;;;4.78;;
12869;SDS011;6503;48.572;13.460;2023-09-30T12:41:19;8.20;;;4.50;;
12869;SDS011;6503;48.572;13.460;2023-09-30T12:43:47;9.30;;;4.03;;
12869;SDS011;6503;48.572;13.460;2023-09-30T12:46:20;7.47;;;4.13;;
12869;SDS011;6503;48.572;13.460;2023-09-30T12:48:49;9.60;;;4.65;;
12869;SDS011;6503;48.572;13.460;2023-09-30T12:51:17;10.60;;;4.85;;
12869;SDS011;6503;48.572;13.460;2023-09-30T12:53:49;8.13;;;4.32;;
12869;SDS011;6503;48.572;13.460;2023-09-30T12:56:23;11.63;;;6.35;;
12869;SDS011;6503;48.572;13.460;2023-09-30T12:58:55;6.82;;;3.92;;
12869;SDS011;6503;48.572;13.460;2023-09-30T13:01:22;7.22;;;3.55;;
12869;SDS011;6503;48.572;13.460;2023-09-30T13:04:03;7.40;;;3.92;;
12869;SDS011;6503;48.572;13.460;2023-09-30T13:06:39;6.55;;;3.88;;
12869;SDS011;6503;48.572;13.460;2023-09-30T13:09:10;7.00;;;4.10;;
12869;SDS011;6503;48.572;13.460;2023-09-30T13:11:38;5.28;;;3.38;;
12869;SDS011;6503;48.572;13.460;2023-09-30T13:14:06;5.95;;;3.70;;
12869;SDS011;6503;48.572;13.460;2023-09-30T13:16:34;5.78;;;3.25;;
12869;SDS011;6503;48.572;13.460;2023-09-30T13:19:01;5.07;;;3.42;;
12869;SDS011;6503;48.572;13.460;2023-09-30T13:21:37;5.03;;;3.20;;
12869;SDS011;6503;48.572;13.460;2023-09-30T13:24:06;4.88;;;2.80;;
12869;SDS011;6503;48.572;13.460;2023-09-30T13:26:37;6.50;;;3.40;;
12869;SDS011;6503;48.572;13.460;2023-09-30T13:29:04;5.93;;;2.90;;
12869;SDS011;6503;48.572;13.460;2023-09-30T13:31:34;8.65;;;3.45;;
12869;SDS011;6503;48.572;13.460;2023-09-30T13:34:05;5.65;;;3.22;;
12869;SDS011;6503;48.572;13.460;2023-09-30T13:36:33;6.47;;;3.42;;
12869;SDS011;6503;48.572;13.460;2023-09-30T13:39:02;4.82;;;2.92;;
12869;SDS011;6503;48.572;13.460;2023-09-30T13:41:33;5.10;;;2.88;;
12869;SDS011;6503;48.572;13.460;2023-09-30T13:46:45;3.70;;;2.30;;
12869;SDS011;6503;48.572;13.460;2023-09-30T13:49:12;3.05;;;2.35;;
12869;SDS011;6503;48.572;13.460;2023-09-30T13:51:40;6.28;;;2.55;;
12869;SDS011;6503;48.572;13.460;2023-09-30T13:54:17;3.75;;;2.10;;
12869;SDS011;6503;48.572;13.460;2023-09-30T13:56:47;3.22;;;2.00;;
12869;SDS011;6503;48.572;13.460;2023-09-30T13:59:15;2.83;;;1.85;;
12869;SDS011;6503;48.572;13.460;2023-09-30T14:01:55;3.08;;;2.08;;
12869;SDS011;6503;48.572;13.460;2023-09-30T14:04:23;2.50;;;1.92;;
12869;SDS011;6503;48.572;13.460;2023-09-30T14:06:57;2.72;;;1.83;;
12869;SDS011;6503;48.572;13.460;2023-09-30T14:09:25;2.38;;;1.70;;
12869;SDS011;6503;48.572;13.460;2023-09-30T14:11:55;3.28;;;1.75;;
12869;SDS011;6503;48.572;13.460;2023-09-30T14:14:30;2.95;;;1.40;;
12869;SDS011;6503;48.572;13.460;2023-09-30T14:17:02;4.50;;;1.90;;
12869;SDS011;6503;48.572;13.460;2023-09-30T14:19:35;3.28;;;1.70;;
12869;SDS011;6503;48.572;13.460;2023-09-30T14:22:02;2.38;;;2.00;;
12869;SDS011;6503;48.572;13.460;2023-09-30T14:24:30;3.33;;;2.00;;
12869;SDS011;6503;48.572;13.460;2023-09-30T14:26:58;3.45;;;1.20;;
12869;SDS011;6503;48.572;13.460;2023-09-30T14:29:25;2.40;;;1.30;;
12869;SDS011;6503;48.572;13.460;2023-09-30T14:31:58;3.72;;;1.42;;
12869;SDS011;6503;48.572;13.460;2023-09-30T14:34:28;2.90;;;1.83;;
12869;SDS011;6503;48.572;13.460;2023-09-30T14:36:56;2.17;;;1.50;;
12869;SDS011;6503;48.572;13.460;2023-09-30T14:39:23;2.17;;;1.10;;
12869;SDS011;6503;48.572;13.460;2023-09-30T14:41:51;2.22;;;1.02;;
12869;SDS011;6503;48.572;13.460;2023-09-30T14:44:20;2.05;;;1.10;;
12869;SDS011;6503;48.572;13.460;2023-09-30T14:46:52;2.42;;;1.45;;
12869;SDS011;6503;48.572;13.460;2023-09-30T14:49:21;1.85;;;1.20;;
12869;SDS011;6503;48.572;13.460;2023-09-30T14:54:49;1.92;;;1.15;;
12869;SDS011;6503;48.572;13.460;2023-09-30T14:57:25;1.30;;;0.98;;
12869;SDS011;6503;48.572;13.460;2023-09-30T15:00:03;3.20;;;1.52;;
12869;SDS011;6503;48.572;13.460;2023-09-30T15:02:39;2.28;;;1.30;;
12869;SDS011;6503;48.572;13.460;2023-09-30T15:05:31;1.88;;;1.30;;
12869;SDS011;6503;48.572;13.460;2023-09-30T15:08:03;4.18;;;1.20;;
12869;SDS011;6503;48.572;13.460;2023-09-30T15:10:47;2.33;;;1.23;;
12869;SDS011;6503;48.572;13.460;2023-09-30T15:13:22;0.98;;;0.85;;
12869;SDS011;6503;48.572;13.460;2023-09-30T15:15:53;3.10;;;1.90;;
12869;SDS011;6503;48.572;13.460;2023-09-30T15:18:29;4.20;;;1.60;;
12869;SDS011;6503;48.572;13.460;2023-09-30T15:20:56;2.90;;;1.65;;
12869;SDS011;6503;48.572;13.460;2023-09-30T15:23:26;2.47;;;1.40;;
12869;SDS011;6503;48.572;13.460;2023-09-30T15:29:10;2.97;;;1.15;;
12869;SDS011;6503;48.572;13.460;2023-09-30T15:31:46;2.65;;;1.45;;
12869;SDS011;6503;48.572;13.460;2023-09-30T15:34:17;2.20;;;1.33;;
12869;SDS011;6503;48.572;13.460;2023-09-30T15:36:45;1.35;;;1.00;;
12869;SDS011;6503;48.572;13.460;2023-09-30T15:39:13;2.22;;;1.05;;
12869;SDS011;6503;48.572;13.460;2023-09-30T15:41:42;2.85;;;1.50;;
12869;SDS011;6503;48.572;13.460;2023-09-30T15:44:15;3.22;;;1.38;;
12869;SDS011;6503;48.572;13.460;2023-09-30T15:46:45;4.57;;;1.95;;
12869;SDS011;6503;48.572;13.460;2023-09-30T15:49:13;2.97;;;1.45;;
12869;SDS011;6503;48.572;13.460;2023-09-30T15:51:43;3.15;;;2.17;;
12869;SDS011;6503;48.572;13.460;2023-09-30T15:54:10;3.53;;;1.63;;